Athol, ID

10:03 AM PDT on March 28, 2015 (GMT -0700)
Ramsey Estates | | Change Station
CLOSE
Current Station
Personal Weather Station
Location: Rathdrum, ID
Elevation: 2330 ft
Nearby Weather Stations

Elev 2330 ft 47.87 °N, 116.81 °W | Updated 3 seconds ago

Overcast
Overcast
46.9 °F
Feels Like 45 °F
N
4.0
Wind Variable Wind from West
Gusts 4.0 mph

Today
High -- | Low -- °F
--% Chance of Precip.
Yesterday
High -- | Low -- °F
Precip. -- in
6:33 AM 7:10 PM
Waxing Gibbous, 64% visible
Pressure 30.05 in
Visibility 10.0 miles
Clouds Mostly Cloudy 5000 ft
Overcast 6500 ft
Windchill 45 °F
Dew Point 22 °F
Humidity 37%
Rainfall 0.35 in
Snow Depth Not available.
UV 1 out of 12
Pollen 7.70 out of 12
Air Quality Not available.
Flu Activity Not available.
METAR KCOE 281655Z AUTO 23024G30KT 10SM BKN050 OVC065 08/02 A3005 RMK AO1

More Conditions Fewer Conditions

Pressure 30.05 in
Visibility 10.0 miles
Clouds Mostly Cloudy 5000 ft
Overcast 6500 ft
Windchill 45 °F
Dew Point 22 °F
Humidity 37%
Rainfall 0.35 in
Snow Depth Not available.
UV 1 out of 12
Pollen 7.70 out of 12
Air Quality Not available.
Flu Activity Not available.
METAR KCOE 281655Z AUTO 23024G30KT 10SM BKN050 OVC065 08/02 A3005 RMK AO1

More Conditions Fewer Conditions

10-Day Weather Forecast

Almanac

Astronomy

Mar. 28, 2015 Rise Set
Actual Time
Civil Twilight
Nautical Twilight
Astronomical Twilight
Moon
Length of Visible Light
Length of Day
Tomorrow will be .
, % of the Moon is Illuminated

Today's Extremes

State Highs State Lows

Community

WunderPhotos

Upload Photos

1,809,029 photos uploaded!

WunderBlogs® & News

Nearby

Air Quality

  Air Quality AQ Index Pollutant
Not available.

Snow Depth

Station Depth Elevation

Earthquake Activity

City Distance Mag. Time & Date
Minimum magnitude displayed is 2.5.

Coastal Water Temperatures

Place Temperature

Stations

Nearby Weather Stations

Station Location Temp. Windchill Dew Point Humidity Wind Precip. Elev Updated Type